Time;durP1;ratioP1;P1;durP2;ratioP2;P2;SDS_P1;SDS_P2;PMS_P1;PMS_P2;Temp;Humidity;BMP_temperature;BMP_pressure;BME280_temperature;BME280_humidity;BME280_pressure;Samples;Min_cycle;Max_cycle;Signal;HPM_P1;HPM_P2
2022/04/21 00:01:29;;;;;;;5.60;5.20;;;;;;;5.59;100.00;99419.91;5111305;28;20202;-65
2022/04/21 00:03:57;;;;;;;5.10;4.70;;;;;;;5.55;100.00;99422.53;5106369;28;20194;-65
2022/04/21 00:06:24;;;;;;;3.83;3.63;;;;;;;5.49;100.00;99432.75;5110889;28;20289;-66
2022/04/21 00:08:51;;;;;;;3.70;3.50;;;;;;;5.49;100.00;99427.66;5110848;28;20207;-64
2022/04/21 00:11:18;;;;;;;4.07;3.87;;;;;;;5.47;100.00;99424.28;5110817;28;20286;-65
2022/04/21 00:13:45;;;;;;;4.17;3.97;;;;;;;5.50;100.00;99419.16;5111064;28;20627;-65
2022/04/21 00:16:12;;;;;;;4.83;4.53;;;;;;;5.50;100.00;99424.25;5109589;28;20676;-65
2022/04/21 00:18:40;;;;;;;4.10;3.90;;;;;;;5.45;100.00;99420.91;5111102;28;20285;-65
2022/04/21 00:21:08;;;;;;;4.73;4.43;;;;;;;5.45;100.00;99423.47;5110962;28;20671;-65
2022/04/21 00:23:34;;;;;;;4.97;4.67;;;;;;;5.45;100.00;99437.00;5110578;28;20190;-65
2022/04/21 00:26:03;;;;;;;4.80;4.50;;;;;;;5.35;100.00;99437.94;5110499;28;20586;-65
2022/04/21 00:28:31;;;;;;;4.97;4.57;;;;;;;5.37;100.00;99438.78;5110866;28;20224;-65
2022/04/21 00:30:59;;;;;;;4.73;4.47;;;;;;;5.36;100.00;99451.50;5110786;28;20289;-65
2022/04/21 00:33:26;;;;;;;4.93;4.73;;;;;;;5.24;100.00;99438.03;5110871;28;20264;-65
2022/04/21 00:35:53;;;;;;;5.97;5.53;;;;;;;5.23;100.00;99453.31;5110785;28;20195;-65
2022/04/21 00:38:21;;;;;;;5.97;5.47;;;;;;;5.23;100.00;99456.66;5108913;28;20297;-66
2022/04/21 00:40:49;;;;;;;6.23;5.63;;;;;;;5.19;100.00;99460.13;5109369;28;20226;-65
2022/04/21 00:43:16;;;;;;;4.87;4.57;;;;;;;5.10;100.00;99452.56;5109679;28;20555;-65
2022/04/21 00:45:43;;;;;;;5.20;4.90;;;;;;;5.00;100.00;99458.56;5110809;28;20595;-65
2022/04/21 00:48:10;;;;;;;5.83;5.27;;;;;;;4.92;100.00;99429.81;5110754;28;20293;-65
2022/04/21 00:50:38;;;;;;;5.33;5.00;;;;;;;4.94;100.00;99435.75;5110202;28;20199;-65
2022/04/21 00:53:07;;;;;;;4.97;4.63;;;;;;;4.97;100.00;99443.34;5110319;28;20663;-65
2022/04/21 00:55:38;;;;;;;5.53;5.20;;;;;;;4.94;100.00;99445.91;5110762;28;20632;-65
2022/04/21 00:58:06;;;;;;;6.17;5.73;;;;;;;4.96;100.00;99450.97;5110631;28;20641;-65
2022/04/21 01:00:33;;;;;;;6.47;6.07;;;;;;;4.98;100.00;99460.25;5110405;28;20313;-65
2022/04/21 01:03:00;;;;;;;5.47;5.07;;;;;;;4.96;100.00;99456.88;5110370;28;20590;-65
2022/04/21 01:05:31;;;;;;;7.13;6.63;;;;;;;4.92;100.00;99465.38;5107874;28;20190;-64
2022/04/21 01:07:59;;;;;;;5.73;5.40;;;;;;;4.86;100.00;99469.66;5110633;28;20199;-65
2022/04/21 01:10:28;;;;;;;5.93;5.50;;;;;;;4.84;100.00;99474.75;5110124;28;20210;-64
2022/04/21 01:12:56;;;;;;;6.30;5.80;;;;;;;4.74;100.00;99465.50;5110612;28;20191;-65
2022/04/21 01:15:23;;;;;;;6.77;6.20;;;;;;;4.76;100.00;99474.78;5113135;28;20195;-65
2022/04/21 01:17:53;;;;;;;7.27;6.57;;;;;;;4.74;100.00;99470.56;5114011;28;20194;-65
2022/04/21 01:20:22;;;;;;;8.57;7.30;;;;;;;4.68;100.00;99470.63;5113994;28;20273;-65
2022/04/21 01:22:49;;;;;;;7.37;6.73;;;;;;;4.68;100.00;99470.63;5114190;28;20211;-65
2022/04/21 01:25:16;;;;;;;8.23;6.93;;;;;;;4.61;100.00;99463.88;5112502;28;20213;-65
2022/04/21 01:27:44;;;;;;;7.20;6.70;;;;;;;4.58;100.00;99468.97;5111926;28;20190;-65
2022/04/21 01:30:13;;;;;;;7.03;6.43;;;;;;;4.56;100.00;99455.41;5113688;28;20203;-65
2022/04/21 01:32:43;;;;;;;10.97;7.87;;;;;;;4.50;100.00;99450.38;5114005;28;20654;-64
2022/04/21 01:35:11;;;;;;;6.93;6.53;;;;;;;4.56;100.00;99450.34;5114075;28;20223;-64
2022/04/21 01:43:10;;;;;;;7.40;6.90;;;;;;;4.66;100.00;99463.00;5112213;28;20237;-65
2022/04/21 01:45:37;;;;;;;6.80;6.27;;;;;;;4.69;100.00;99462.97;5111570;28;20283;-65
2022/04/21 01:48:05;;;;;;;7.13;6.67;;;;;;;4.66;100.00;99457.06;5111469;28;20277;-65
2022/04/21 01:50:33;;;;;;;7.47;6.87;;;;;;;4.61;100.00;99443.56;5111605;28;20198;-65
2022/04/21 01:53:01;;;;;;;6.00;5.60;;;;;;;4.74;100.00;99458.72;5111587;28;20689;-65
2022/04/21 01:55:29;;;;;;;7.60;6.97;;;;;;;4.75;100.00;99449.38;5112163;28;20290;-65
2022/04/21 01:57:56;;;;;;;6.33;5.90;;;;;;;4.63;100.00;99429.16;5112414;28;20273;-66
2022/04/21 02:00:23;;;;;;;6.23;5.73;;;;;;;4.72;100.00;99449.41;5112697;28;20286;-65
2022/04/21 02:02:50;;;;;;;5.97;5.50;;;;;;;4.65;100.00;99450.31;5113226;28;20218;-65
2022/04/21 02:05:17;;;;;;;9.53;6.57;;;;;;;4.66;100.00;99449.44;5113098;28;20285;-65
2022/04/21 02:07:45;;;;;;;5.97;5.57;;;;;;;4.53;100.00;99422.44;5113125;28;20581;-65
2022/04/21 02:10:15;;;;;;;6.50;5.83;;;;;;;4.69;100.00;99444.34;5113065;28;20198;-65
2022/04/21 02:12:42;;;;;;;6.43;6.03;;;;;;;4.79;100.00;99448.53;5112828;28;20282;-65
2022/04/21 02:15:10;;;;;;;5.17;4.73;;;;;;;4.75;100.00;99427.38;5113068;28;20277;-65
2022/04/21 02:17:37;;;;;;;5.47;5.07;;;;;;;4.94;100.00;99453.53;5112915;28;20187;-65
2022/04/21 02:20:06;;;;;;;5.27;4.97;;;;;;;4.96;100.00;99441.66;5113126;28;20676;-65
2022/04/21 02:22:34;;;;;;;6.23;5.83;;;;;;;5.09;100.00;99458.50;5111800;28;20690;-65
2022/04/21 02:25:02;;;;;;;6.13;5.73;;;;;;;5.13;100.00;99460.16;5112053;28;20194;-65
2022/04/21 02:27:31;;;;;;;6.63;6.10;;;;;;;5.16;100.00;99460.13;5112343;28;20285;-65
2022/04/21 02:29:59;;;;;;;8.83;7.17;;;;;;;5.10;100.00;99444.94;5112753;28;20259;-66
2022/04/21 02:32:26;;;;;;;6.23;5.77;;;;;;;5.20;100.00;99461.78;5112849;28;20222;-65
2022/04/21 02:34:54;;;;;;;6.10;5.53;;;;;;;5.21;100.00;99453.31;5109344;28;20246;-65
2022/04/21 02:37:21;;;;;;;5.10;4.80;;;;;;;5.20;100.00;99461.78;5111247;28;20559;-65
2022/04/21 02:39:48;;;;;;;5.20;4.80;;;;;;;5.12;100.00;99447.44;5112042;28;20228;-66
2022/04/21 02:42:16;;;;;;;5.00;4.80;;;;;;;4.92;100.00;99424.72;5112676;28;20716;-65
2022/04/21 02:44:44;;;;;;;4.83;4.63;;;;;;;4.99;100.00;99439.09;5112635;28;20658;-65
2022/04/21 02:47:11;;;;;;;5.47;5.07;;;;;;;4.99;100.00;99446.69;5112345;28;20285;-65
2022/04/21 02:49:40;;;;;;;5.07;4.67;;;;;;;4.91;100.00;99433.19;5112316;28;20622;-65
2022/04/21 02:52:09;;;;;;;5.17;4.87;;;;;;;4.96;100.00;99445.88;5112615;28;20199;-65
2022/04/21 02:57:24;;;;;;;7.00;5.80;;;;;;;4.92;100.00;99434.88;5112476;28;20202;-65
2022/04/21 02:59:54;;;;;;;5.93;5.53;;;;;;;5.04;100.00;99455.13;5111936;28;20194;-66
2022/04/21 03:02:22;;;;;;;6.80;6.23;;;;;;;5.08;100.00;99455.94;5112417;28;20230;-65
2022/04/21 03:04:51;;;;;;;5.97;5.47;;;;;;;5.06;100.00;99455.97;5112292;28;20289;-65
2022/04/21 03:07:20;;;;;;;5.37;5.07;;;;;;;5.06;100.00;99453.44;5111775;28;22150;-66
2022/04/21 03:09:47;;;;;;;5.83;5.40;;;;;;;5.06;100.00;99453.44;5112045;28;20199;-65
2022/04/21 03:12:14;;;;;;;6.33;5.73;;;;;;;5.05;100.00;99446.66;5111338;28;20710;-65
2022/04/21 03:14:43;;;;;;;5.83;5.47;;;;;;;5.07;100.00;99446.66;5111618;28;20285;-65
2022/04/21 03:17:11;;;;;;;5.60;5.17;;;;;;;5.06;100.00;99442.41;5111809;28;20285;-65
2022/04/21 03:19:39;;;;;;;7.20;5.93;;;;;;;5.04;100.00;99444.97;5111835;28;20201;-65
2022/04/21 03:24:51;;;;;;;6.43;5.93;;;;;;;4.83;100.00;99437.50;5111824;28;20194;-65
2022/04/21 03:27:18;;;;;;;5.83;5.43;;;;;;;4.86;100.00;99449.31;5111706;28;20209;-65
2022/04/21 03:29:44;;;;;;;5.50;5.10;;;;;;;4.84;100.00;99456.97;5111643;28;20205;-65
2022/04/21 03:32:14;;;;;;;5.50;5.10;;;;;;;4.86;100.00;99460.34;5110367;28;20291;-66
2022/04/21 03:34:42;;;;;;;5.30;5.00;;;;;;;4.86;100.00;99470.50;5110316;28;20210;-65
2022/04/21 03:37:10;;;;;;;4.57;4.27;;;;;;;4.88;100.00;99466.22;5110180;28;20209;-65
2022/04/21 03:39:39;;;;;;;5.43;5.13;;;;;;;4.92;100.00;99469.59;5109609;28;20753;-65
2022/04/21 03:42:07;;;;;;;5.40;5.10;;;;;;;4.95;100.00;99475.50;5110408;28;20780;-65
2022/04/21 03:44:35;;;;;;;4.83;4.53;;;;;;;4.97;100.00;99468.75;5111560;28;20222;-65
2022/04/21 03:47:03;;;;;;;6.87;5.00;;;;;;;4.99;100.00;99471.25;5111078;28;20194;-65
2022/04/21 03:49:31;;;;;;;4.33;4.10;;;;;;;4.97;100.00;99468.75;5111313;28;20581;-65
2022/04/21 03:51:58;;;;;;;5.00;4.60;;;;;;;5.00;100.00;99465.34;5110883;28;20202;-65
2022/04/21 03:54:26;;;;;;;4.80;4.50;;;;;;;5.00;100.00;99463.63;5110264;28;20206;-65
2022/04/21 03:56:54;;;;;;;5.93;5.43;;;;;;;5.00;100.00;99472.94;5110454;28;20287;-65
2022/04/21 03:59:22;;;;;;;5.30;4.90;;;;;;;5.04;100.00;99472.91;5111029;28;20210;-65
2022/04/21 04:01:49;;;;;;;5.73;5.20;;;;;;;5.02;100.00;99472.09;5108440;28;20214;-64
2022/04/21 04:04:16;;;;;;;5.20;4.70;;;;;;;5.03;100.00;99476.31;5110832;28;20205;-65
2022/04/21 04:12:23;;;;;;;6.33;5.83;;;;;;;5.08;100.00;99466.94;5095280;28;20580;-65
2022/04/21 04:14:50;;;;;;;6.23;5.73;;;;;;;5.12;100.00;99477.94;5110916;28;20202;-65
2022/04/21 04:17:17;;;;;;;7.13;6.43;;;;;;;5.12;100.00;99478.78;5110293;28;20290;-65
2022/04/21 04:19:44;;;;;;;6.70;6.13;;;;;;;5.24;100.00;99468.53;5110658;28;20191;-65
2022/04/21 04:22:14;;;;;;;6.50;6.00;;;;;;;5.29;100.00;99476.97;5110832;28;20240;-65
2022/04/21 04:24:41;;;;;;;7.53;6.83;;;;;;;5.41;100.00;99478.56;5110752;28;20225;-65
2022/04/21 04:27:08;;;;;;;7.63;7.00;;;;;;;5.57;100.00;99471.66;5110587;28;20289;-65
2022/04/21 04:29:35;;;;;;;5.97;5.60;;;;;;;5.63;100.00;99472.44;5110536;28;20763;-65
2022/04/21 04:32:02;;;;;;;7.27;6.67;;;;;;;5.77;100.00;99469.78;5109405;28;20280;-65
2022/04/21 04:34:29;;;;;;;6.77;6.17;;;;;;;5.86;100.00;99479.88;5110509;28;20203;-65
2022/04/21 04:36:56;;;;;;;7.70;7.00;;;;;;;6.03;100.00;99472.94;5105412;28;20290;-65
2022/04/21 04:39:24;;;;;;;7.87;7.37;;;;;;;6.12;100.00;99465.19;5103776;28;20222;-65
2022/04/21 04:44:35;;;;;;;7.40;6.80;;;;;;;6.46;100.00;99468.19;5110798;28;20198;-65
2022/04/21 04:47:01;;;;;;;7.70;7.10;;;;;;;6.59;100.00;99474.78;5107113;28;20663;-65
2022/04/21 04:49:28;;;;;;;7.53;6.90;;;;;;;6.72;100.00;99470.38;5112129;28;20194;-65
2022/04/21 04:51:55;;;;;;;6.20;5.83;;;;;;;6.80;100.00;99473.66;5114095;28;20209;-65
2022/04/21 04:54:25;;;;;;;7.37;6.87;;;;;;;6.90;100.00;99467.56;5114574;28;20722;-66
2022/04/21 04:56:52;;;;;;;7.40;7.00;;;;;;;6.83;100.00;99426.06;5114348;28;20648;-66
2022/04/21 04:59:19;;;;;;;6.20;5.90;;;;;;;7.21;100.00;99468.78;5114512;28;20278;-65
2022/04/21 05:01:46;;;;;;;7.37;6.67;;;;;;;7.47;100.00;99463.28;5114355;28;20190;-65
2022/04/21 05:04:16;;;;;;;7.27;6.67;;;;;;;7.56;100.00;99452.91;5113680;28;20218;-66
2022/04/21 05:06:44;;;;;;;7.53;6.83;;;;;;;7.67;100.00;99460.38;5114458;28;20670;-65
2022/04/21 05:09:13;;;;;;;6.67;6.13;;;;;;;7.75;100.00;99468.75;5114072;28;20201;-66
2022/04/21 05:11:43;;;;;;;6.70;6.20;;;;;;;7.78;100.00;99471.25;5114230;28;20198;-65
2022/04/21 05:14:11;;;;;;;5.97;5.57;;;;;;;7.85;100.00;99480.50;5114254;28;20737;-67
2022/04/21 05:16:39;;;;;;;6.13;5.83;;;;;;;7.74;100.00;99479.81;5113791;28;20737;-66
2022/04/21 05:19:08;;;;;;;5.83;5.53;;;;;;;7.74;100.00;99478.13;5113994;28;20281;-66
2022/04/21 05:21:36;;;;;;;5.70;5.40;;;;;;;7.58;100.00;99480.97;5113885;28;20198;-65
2022/04/21 05:24:05;;;;;;;5.73;5.43;;;;;;;7.56;100.00;99485.25;5113666;28;20211;-66
2022/04/21 05:26:34;;;;;;;6.20;5.80;;;;;;;7.35;100.00;99477.06;5114115;28;20288;-65
2022/04/21 05:30:55;;;;;;;5.23;4.93;;;;;;;7.43;100.00;99492.25;5112962;28;20205;-65
2022/04/21 05:31:54;;;;;;;5.90;5.50;;;;;;;7.53;100.00;99487.84;5112228;28;20227;-65
2022/04/21 05:34:22;;;;;;;7.10;6.60;;;;;;;7.72;100.00;99494.34;5113551;28;20194;-65
2022/04/21 05:36:49;;;;;;;6.60;6.10;;;;;;;7.89;100.00;99492.31;5113873;28;20282;-66
2022/04/21 05:39:17;;;;;;;6.40;5.90;;;;;;;8.02;100.00;99498.88;5113033;28;20225;-66
2022/04/21 05:41:44;;;;;;;7.50;6.80;;;;;;;8.16;100.00;99501.19;5113621;28;20290;-65
2022/04/21 05:44:14;;;;;;;7.33;6.83;;;;;;;8.32;100.00;99500.91;5113522;28;20640;-66
2022/04/21 05:46:41;;;;;;;6.17;5.87;;;;;;;8.42;100.00;99499.00;5113816;28;20566;-66
2022/04/21 05:49:09;;;;;;;6.67;6.23;;;;;;;8.43;100.00;99516.84;5113456;28;20282;-65
2022/04/21 05:51:36;;;;;;;6.10;5.70;;;;;;;8.41;100.00;99515.19;5112526;28;20202;-65
2022/04/21 05:54:06;;;;;;;8.27;7.43;;;;;;;8.42;100.00;99522.00;5112432;28;20281;-65
2022/04/21 05:56:33;;;;;;;8.67;6.60;;;;;;;8.53;100.00;99514.13;5112335;28;20286;-66
2022/04/21 05:59:00;;;;;;;8.17;7.23;;;;;;;8.65;100.00;99526.66;5112762;28;20214;-66
2022/04/21 06:01:28;;;;;;;11.00;8.27;;;;;;;8.64;100.00;99522.41;5111602;28;20286;-66
2022/04/21 06:03:55;;;;;;;9.27;8.37;;;;;;;8.70;100.00;99524.81;5112206;28;20685;-66
2022/04/21 06:06:22;;;;;;;8.03;7.43;;;;;;;8.77;100.00;99526.38;5110265;28;20212;-66
2022/04/21 06:08:49;;;;;;;9.23;8.17;;;;;;;8.86;100.00;99510.84;5109348;28;20203;-67
2022/04/21 06:11:16;;;;;;;9.20;8.40;;;;;;;9.02;99.84;99498.56;5111959;27;20192;-67
2022/04/21 06:13:43;;;;;;;9.13;7.53;;;;;;;9.26;100.00;99496.31;5111700;27;20197;-67
2022/04/21 06:16:10;;;;;;;9.67;7.90;;;;;;;9.49;97.80;99504.28;5111315;28;20306;-66
2022/04/21 06:18:39;;;;;;;9.80;8.97;;;;;;;9.53;96.52;99504.22;5112164;28;20281;-67
2022/04/21 06:21:06;;;;;;;9.10;8.33;;;;;;;9.61;97.56;99486.94;5111259;28;20548;-66
2022/04/21 06:23:33;;;;;;;9.57;8.30;;;;;;;9.87;96.27;99505.03;5107563;28;20214;-65
2022/04/21 06:26:01;;;;;;;8.03;7.33;;;;;;;9.86;94.99;99503.34;5107548;28;20211;-67
2022/04/21 06:28:29;;;;;;;8.70;7.97;;;;;;;9.84;94.64;99505.13;5107659;28;20656;-73
2022/04/21 06:30:56;;;;;;;8.93;8.15;;;;;;;9.79;94.66;99504.41;5105911;28;20387;-79
2022/04/21 06:33:23;;;;;;;9.32;8.38;;;;;;;9.79;95.15;99501.84;5108596;28;20442;-63
2022/04/21 06:35:51;;;;;;;6.90;6.50;;;;;;;10.06;96.09;99511.38;5110061;28;20595;-62
2022/04/21 06:38:18;;;;;;;7.17;6.77;;;;;;;10.26;93.44;99514.28;5109001;28;20198;-63
2022/04/21 06:40:46;;;;;;;6.93;6.37;;;;;;;10.42;92.62;99518.09;5111822;28;20226;-63
2022/04/21 06:48:42;;;;;;;5.77;5.40;;;;;;;10.62;91.52;99507.28;5110959;28;20661;-63
2022/04/21 06:51:11;;;;;;;6.30;5.90;;;;;;;10.33;88.75;99479.09;5111573;28;20199;-63
2022/04/21 06:53:39;;;;;;;6.40;6.03;;;;;;;10.37;91.42;99496.88;5111641;28;20259;-62
2022/04/21 06:56:06;;;;;;;5.93;5.53;;;;;;;10.32;90.53;99501.28;5111517;28;20199;-62
2022/04/21 06:58:33;;;;;;;5.73;5.43;;;;;;;10.27;90.80;99500.59;5111555;28;20223;-63
2022/04/21 07:01:00;;;;;;;6.33;5.93;;;;;;;10.30;90.52;99504.78;5111566;28;20201;-63
2022/04/21 07:03:27;;;;;;;6.43;6.00;;;;;;;10.34;93.42;99491.84;5111564;28;20219;-62
2022/04/21 07:05:55;;;;;;;6.23;5.73;;;;;;;10.17;91.10;99504.28;5111352;28;20647;-63
2022/04/21 07:08:23;;;;;;;7.33;6.70;;;;;;;10.08;91.82;99501.09;5111570;27;20204;-63
2022/04/21 07:10:50;;;;;;;6.70;6.20;;;;;;;10.09;92.66;99484.81;5111951;28;20665;-63
2022/04/21 07:13:17;;;;;;;14.43;7.63;;;;;;;10.23;95.06;99488.75;5110868;28;20641;-62
2022/04/21 07:15:44;;;;;;;8.47;6.03;;;;;;;10.32;97.40;99493.59;5111216;28;20559;-62
2022/04/21 07:18:13;;;;;;;6.47;6.07;;;;;;;10.44;97.85;99503.50;5110889;28;20268;-62
2022/04/21 07:20:40;;;;;;;6.63;6.03;;;;;;;10.58;96.54;99495.44;5110952;28;20199;-63
2022/04/21 07:23:08;;;;;;;5.80;5.43;;;;;;;10.52;95.83;99465.69;5109760;28;20309;-63
2022/04/21 07:25:36;;;;;;;5.70;5.30;;;;;;;10.75;97.28;99492.38;5110325;28;20195;-63
2022/04/21 07:28:03;;;;;;;5.53;5.03;;;;;;;10.84;96.59;99494.69;5109509;28;20307;-62
2022/04/21 07:30:30;;;;;;;5.13;4.83;;;;;;;10.84;93.24;99502.38;5111189;28;20194;-63
2022/04/21 07:32:57;;;;;;;5.43;5.13;;;;;;;10.94;93.93;99499.50;5110818;28;20203;-63
2022/04/21 07:35:25;;;;;;;6.40;6.00;;;;;;;10.95;91.59;99488.31;5111212;28;20218;-62
2022/04/21 07:37:52;;;;;;;5.83;5.53;;;;;;;11.15;93.42;99497.16;5111599;28;20198;-63
2022/04/21 07:40:20;;;;;;;6.03;5.63;;;;;;;11.30;93.47;99492.41;5111397;28;20231;-63
2022/04/21 07:42:48;;;;;;;5.90;5.60;;;;;;;11.37;92.98;99487.91;5111726;28;20194;-63
2022/04/21 07:45:15;;;;;;;4.93;4.63;;;;;;;11.30;95.01;99484.69;5111324;28;20317;-63
2022/04/21 07:47:42;;;;;;;5.70;5.40;;;;;;;11.50;93.96;99494.34;5111546;28;20194;-62
2022/04/21 07:50:09;;;;;;;4.80;4.53;;;;;;;11.54;90.12;99491.59;5111688;28;20277;-63
2022/04/21 07:55:23;;;;;;;5.10;4.80;;;;;;;11.65;90.14;99482.69;5111237;28;20197;-63
2022/04/21 07:57:53;;;;;;;5.55;5.25;;;;;;;11.74;88.53;99492.69;5109107;28;20443;-66
2022/04/21 08:00:20;;;;;;;5.20;4.90;;;;;;;11.95;89.77;99495.41;5111023;28;20191;-66
2022/04/21 08:02:48;;;;;;;5.30;5.00;;;;;;;12.07;90.53;99501.84;5109822;28;20281;-67
2022/04/21 08:05:17;;;;;;;6.13;5.83;;;;;;;12.13;90.64;99486.19;5110568;28;20206;-66
2022/04/21 08:07:45;;;;;;;4.70;4.50;;;;;;;12.30;91.54;99493.31;5110755;28;20334;-67
2022/04/21 08:10:13;;;;;;;4.40;4.20;;;;;;;12.32;84.95;99496.66;5110150;28;20198;-66
2022/04/21 08:12:41;;;;;;;5.20;4.97;;;;;;;12.49;90.02;99495.19;5109420;28;20285;-67
2022/04/21 08:15:11;;;;;;;4.90;4.70;;;;;;;12.62;90.91;99496.41;5106339;28;20211;-67
2022/04/21 08:17:39;;;;;;;5.07;4.67;;;;;;;12.71;89.30;99494.38;5105498;28;20289;-66
2022/04/21 08:20:08;;;;;;;4.60;4.40;;;;;;;12.60;85.63;99463.94;5106755;28;20195;-66
2022/04/21 08:22:35;;;;;;;5.40;5.10;;;;;;;12.98;87.18;99498.50;5107473;28;20203;-66
2022/04/21 08:33:20;;;;;;;4.13;3.93;;;;;;;13.36;87.51;99509.91;5113056;28;20205;-66
2022/04/21 08:35:50;;;;;;;4.47;4.07;;;;;;;13.51;88.20;99510.13;5113046;28;20570;-66
2022/04/21 08:38:18;;;;;;;4.20;4.00;;;;;;;13.58;85.07;99511.56;5111713;28;20289;-64
2022/04/21 08:40:52;;;;;;;4.80;4.50;;;;;;;13.76;86.50;99514.28;5112435;28;20226;-66
2022/04/21 08:43:19;;;;;;;4.10;3.90;;;;;;;13.87;85.19;99509.50;5112421;28;20203;-67
2022/04/21 08:45:49;;;;;;;4.23;4.03;;;;;;;13.96;85.61;99485.94;5111829;28;20595;-66
2022/04/21 08:48:17;;;;;;;4.00;3.80;;;;;;;14.03;81.16;99503.66;5112193;28;20195;-66
2022/04/21 08:50:44;;;;;;;4.23;4.03;;;;;;;14.17;81.38;99508.22;5113564;28;20202;-66
2022/04/21 08:53:14;;;;;;;4.57;4.27;;;;;;;14.29;81.93;99504.28;5112444;28;20199;-66
2022/04/21 08:55:42;;;;;;;4.83;4.63;;;;;;;14.45;80.41;99500.16;5112716;28;20199;-66
2022/04/21 08:58:09;;;;;;;4.23;4.03;;;;;;;14.63;78.96;99499.34;5112182;28;20289;-66
2022/04/21 09:00:36;;;;;;;4.43;4.23;;;;;;;14.47;78.93;99503.50;5110892;28;20691;-66
2022/04/21 09:03:07;;;;;;;5.10;4.80;;;;;;;14.31;76.64;99477.53;5112058;28;20217;-66
2022/04/21 09:05:34;;;;;;;3.90;3.70;;;;;;;14.56;78.78;99501.38;5112352;28;20227;-66
2022/04/21 09:08:01;;;;;;;3.43;3.33;;;;;;;14.95;80.96;99490.13;5112155;28;20302;-66
2022/04/21 09:10:31;;;;;;;5.07;4.77;;;;;;;15.17;75.86;99496.78;5113027;28;20612;-66
2022/04/21 09:13:00;;;;;;;4.60;4.40;;;;;;;15.14;75.09;99490.94;5112704;28;20218;-66
2022/04/21 09:15:28;;;;;;;3.73;3.63;;;;;;;15.27;76.41;99492.03;5111421;28;20213;-66
2022/04/21 09:17:57;;;;;;;4.20;4.00;;;;;;;15.39;78.28;99488.00;5112226;28;20753;-67
2022/04/21 09:20:29;;;;;;;3.60;3.40;;;;;;;15.43;79.19;99484.38;5111005;28;20206;-66
2022/04/21 09:22:58;;;;;;;3.77;3.57;;;;;;;15.46;79.67;99487.66;5106755;28;20204;-66
2022/04/21 09:25:26;;;;;;;4.03;3.83;;;;;;;15.42;74.50;99480.94;5112399;28;20763;-67
2022/04/21 09:27:54;;;;;;;3.73;3.53;;;;;;;15.57;73.97;99480.22;5113186;28;20194;-66
2022/04/21 09:30:21;;;;;;;4.17;3.97;;;;;;;15.68;77.08;99484.88;5110829;28;20283;-67
2022/04/21 09:32:53;;;;;;;4.13;3.83;;;;;;;15.70;75.86;99478.72;5109732;28;20207;-68
2022/04/21 09:35:21;;;;;;;3.50;3.40;;;;;;;15.75;76.26;99479.34;5111311;28;20217;-67
2022/04/21 09:37:51;;;;;;;4.17;3.83;;;;;;;15.84;75.71;99484.94;5111856;28;20199;-66
2022/04/21 09:40:20;;;;;;;4.10;3.90;;;;;;;15.68;70.54;99493.47;5112243;28;20222;-67
2022/04/21 09:42:57;;;;;;;3.83;3.63;;;;;;;15.62;76.55;99467.94;5112136;28;20286;-67
2022/04/21 09:48:22;;;;;;;3.03;2.93;;;;;;;15.68;71.15;99482.28;5108859;28;20226;-66
2022/04/21 09:50:53;;;;;;;3.90;3.70;;;;;;;15.58;66.99;99481.91;5111546;28;20265;-67
2022/04/21 09:53:23;;;;;;;4.67;4.47;;;;;;;15.57;68.74;99479.41;5111924;28;20248;-67
2022/04/21 09:55:51;;;;;;;4.47;4.27;;;;;;;15.67;72.31;99458.19;5112145;28;20206;-66
2022/04/21 09:58:18;;;;;;;4.43;4.17;;;;;;;15.50;71.94;99465.97;5112380;28;20289;-66
2022/04/21 10:00:46;;;;;;;4.80;3.50;;;;;;;15.67;75.06;99465.94;5109360;28;20210;-66
2022/04/21 10:03:13;;;;;;;4.27;4.03;;;;;;;15.49;72.15;99428.09;5112147;28;20285;-66
2022/04/21 10:05:42;;;;;;;6.93;6.53;;;;;;;15.73;72.52;99455.28;5109957;28;20225;-68
2022/04/21 10:08:11;;;;;;;3.97;3.77;;;;;;;15.60;72.65;99464.59;5111523;28;20203;-66
2022/04/21 10:10:40;;;;;;;3.40;3.23;;;;;;;15.68;72.91;99457.28;5110302;28;20213;-66
2022/04/21 10:13:08;;;;;;;4.17;3.97;;;;;;;15.66;71.08;99464.28;5111251;28;20199;-67
2022/04/21 10:15:36;;;;;;;3.80;3.60;;;;;;;15.79;71.77;99458.50;5108249;28;20195;-67
2022/04/21 10:18:06;;;;;;;5.77;4.33;;;;;;;15.75;71.27;99453.50;5108367;28;20207;-67
2022/04/21 10:20:33;;;;;;;4.57;4.20;;;;;;;15.68;73.18;99452.13;5110267;28;20201;-67
2022/04/21 10:23:03;;;;;;;4.40;4.00;;;;;;;15.51;72.68;99452.09;5108910;28;20203;-66
2022/04/21 10:25:42;;;;;;;4.10;3.90;;;;;;;15.56;75.16;99444.97;5108996;28;20590;-66
2022/04/21 10:28:41;;;;;;;4.07;3.83;;;;;;;15.65;73.77;99447.09;5108540;28;20202;-66
2022/04/21 10:31:28;;;;;;;4.70;4.40;;;;;;;15.73;75.89;99444.94;5108868;28;20202;-66
2022/04/21 10:33:57;;;;;;;4.30;4.00;;;;;;;15.68;72.44;99446.94;5107163;28;20206;-67
2022/04/21 10:36:34;;;;;;;4.40;4.20;;;;;;;15.77;72.80;99449.06;5108251;28;20293;-67
2022/04/21 10:39:12;;;;;;;4.87;4.60;;;;;;;15.83;72.83;99452.28;5108355;28;20230;-66
2022/04/21 10:41:41;;;;;;;4.63;4.33;;;;;;;15.76;73.59;99444.00;5109699;28;20205;-66
2022/04/21 10:44:14;;;;;;;4.63;4.43;;;;;;;15.73;76.01;99438.97;5108855;28;20221;-65
2022/04/21 10:46:41;;;;;;;4.60;4.40;;;;;;;15.80;75.08;99442.09;5107207;28;20201;-67
2022/04/21 10:49:09;;;;;;;4.93;4.63;;;;;;;15.75;75.39;99432.81;5108893;28;20696;-65
2022/04/21 10:58:50;;;;;;;5.43;5.13;;;;;;;15.83;75.08;99436.75;5108937;28;20235;-64
2022/04/21 11:01:31;;;;;;;5.20;4.70;;;;;;;15.89;76.51;99439.03;5109294;28;20198;-67
2022/04/21 11:04:09;;;;;;;4.83;4.53;;;;;;;16.01;78.19;99438.38;5110063;28;20219;-67
2022/04/21 11:07:05;;;;;;;5.00;4.70;;;;;;;16.02;75.59;99440.06;5109416;28;20213;-66
2022/04/21 11:09:39;;;;;;;5.27;4.97;;;;;;;15.91;74.71;99442.34;5109528;28;20203;-66
2022/04/21 11:12:07;;;;;;;5.73;5.23;;;;;;;15.96;75.18;99440.41;5109591;28;20282;-66
2022/04/21 11:14:36;;;;;;;5.53;5.20;;;;;;;15.73;72.99;99441.56;5108581;28;20200;-66
2022/04/21 11:17:06;;;;;;;5.93;5.60;;;;;;;15.62;74.00;99441.25;5107603;28;20218;-66
2022/04/21 11:19:51;;;;;;;7.17;6.47;;;;;;;15.53;73.97;99432.22;5110466;28;20205;-66
2022/04/21 11:22:40;;;;;;;6.30;5.93;;;;;;;15.50;73.50;99432.38;5109380;28;20289;-67
2022/04/21 11:25:08;;;;;;;6.93;6.30;;;;;;;15.45;74.27;99428.28;5108281;28;20590;-67
2022/04/21 11:27:42;;;;;;;5.73;5.27;;;;;;;15.60;75.11;99414.66;5110880;28;20199;-66
2022/04/21 11:30:12;;;;;;;5.63;5.23;;;;;;;15.72;75.51;99394.19;5110865;28;20722;-67
2022/04/21 11:32:48;;;;;;;5.33;5.03;;;;;;;15.74;73.96;99410.44;5110221;28;20195;-67
2022/04/21 11:35:16;;;;;;;4.90;4.60;;;;;;;15.75;74.18;99401.78;5110695;28;20639;-67
2022/04/21 11:37:57;;;;;;;4.93;4.73;;;;;;;15.69;74.89;99409.88;5110244;28;20199;-67
2022/04/21 11:40:32;;;;;;;5.60;5.27;;;;;;;15.55;74.18;99394.22;5110184;28;20219;-67
2022/04/21 11:43:02;;;;;;;5.40;5.00;;;;;;;15.70;76.31;99403.75;5111457;28;20190;-67
2022/04/21 11:45:31;;;;;;;6.33;5.73;;;;;;;15.64;75.48;99393.75;5111731;28;20216;-67
2022/04/21 11:48:00;;;;;;;5.67;5.37;;;;;;;15.67;76.86;99397.94;5107719;28;20205;-67
2022/04/21 11:50:29;;;;;;;5.17;4.87;;;;;;;15.81;76.00;99381.69;5107920;28;20293;-66
2022/04/21 11:52:57;;;;;;;5.87;5.47;;;;;;;15.85;77.62;99373.72;5111088;28;20550;-67
2022/04/21 11:55:26;;;;;;;5.30;4.90;;;;;;;15.88;74.38;99372.72;5109466;28;20207;-71
2022/04/21 11:57:53;;;;;;;5.67;5.27;;;;;;;15.87;74.64;99373.63;5105486;28;20302;-66
2022/04/21 12:08:29;;;;;;;5.73;5.43;;;;;;;16.02;71.93;99362.50;5103988;28;20698;-67
2022/04/21 12:10:56;;;;;;;5.40;5.10;;;;;;;15.91;70.55;99370.81;5104865;28;20210;-67
2022/04/21 12:13:24;;;;;;;7.83;5.40;;;;;;;15.89;72.31;99366.66;5102600;28;20224;-66
2022/04/21 12:15:51;;;;;;;6.03;5.27;;;;;;;15.85;74.97;99365.13;5101788;28;20204;-66
2022/04/21 12:18:19;;;;;;;4.87;4.67;;;;;;;15.97;71.45;99367.06;5103054;28;21058;-66
2022/04/21 12:20:53;;;;;;;6.03;5.63;;;;;;;16.07;71.55;99360.50;5104529;28;20814;-66
2022/04/21 12:23:24;;;;;;;5.10;4.80;;;;;;;16.25;72.46;99364.69;5099319;28;20199;-67
2022/04/21 12:25:52;;;;;;;5.07;4.67;;;;;;;16.14;70.47;99354.09;5100216;28;20321;-66
2022/04/21 12:28:18;;;;;;;4.50;4.30;;;;;;;16.24;72.72;99348.34;5100113;28;20730;-67
2022/04/21 12:30:45;;;;;;;4.23;4.03;;;;;;;16.29;71.13;99343.75;5101815;28;20196;-66
2022/04/21 12:33:12;;;;;;;5.23;4.83;;;;;;;16.32;73.08;99350.50;5099831;28;20286;-66
2022/04/21 12:35:45;;;;;;;4.57;4.17;;;;;;;16.34;72.26;99346.09;5099598;28;20196;-66